sensor_id;sensor_type;location;lat;lon;timestamp;P1;durP1;ratioP1;P2;durP2;ratioP2
39196;SDS011;42889;51.112;13.772;2022-10-16T00:01:05;6.80;;;3.55;;
39196;SDS011;42889;51.112;13.772;2022-10-16T00:03:39;8.07;;;3.33;;
39196;SDS011;42889;51.112;13.772;2022-10-16T00:06:07;5.68;;;3.00;;
39196;SDS011;42889;51.112;13.772;2022-10-16T00:08:35;6.85;;;3.67;;
39196;SDS011;42889;51.112;13.772;2022-10-16T00:13:31;6.05;;;3.42;;
39196;SDS011;42889;51.112;13.772;2022-10-16T00:15:59;7.35;;;3.35;;
39196;SDS011;42889;51.112;13.772;2022-10-16T00:18:27;6.72;;;3.28;;
39196;SDS011;42889;51.112;13.772;2022-10-16T00:20:54;6.45;;;3.53;;
39196;SDS011;42889;51.112;13.772;2022-10-16T00:23:22;8.40;;;3.78;;
39196;SDS011;42889;51.112;13.772;2022-10-16T00:25:56;7.10;;;3.70;;
39196;SDS011;42889;51.112;13.772;2022-10-16T00:28:24;7.07;;;3.30;;
39196;SDS011;42889;51.112;13.772;2022-10-16T00:30:51;7.65;;;3.88;;
39196;SDS011;42889;51.112;13.772;2022-10-16T00:33:17;6.78;;;4.00;;
39196;SDS011;42889;51.112;13.772;2022-10-16T00:35:44;6.60;;;3.58;;
39196;SDS011;42889;51.112;13.772;2022-10-16T00:38:11;7.55;;;3.53;;
39196;SDS011;42889;51.112;13.772;2022-10-16T00:40:38;5.32;;;2.97;;
39196;SDS011;42889;51.112;13.772;2022-10-16T00:43:31;5.85;;;3.25;;
39196;SDS011;42889;51.112;13.772;2022-10-16T00:46:05;6.50;;;3.10;;
39196;SDS011;42889;51.112;13.772;2022-10-16T00:48:39;5.28;;;2.90;;
39196;SDS011;42889;51.112;13.772;2022-10-16T00:51:07;5.25;;;2.90;;
39196;SDS011;42889;51.112;13.772;2022-10-16T00:53:33;7.57;;;3.47;;
39196;SDS011;42889;51.112;13.772;2022-10-16T00:56:02;6.32;;;3.30;;
39196;SDS011;42889;51.112;13.772;2022-10-16T00:58:29;6.00;;;3.33;;
39196;SDS011;42889;51.112;13.772;2022-10-16T01:00:56;6.35;;;3.40;;
39196;SDS011;42889;51.112;13.772;2022-10-16T01:03:27;6.18;;;3.13;;
39196;SDS011;42889;51.112;13.772;2022-10-16T01:11:35;7.25;;;3.40;;
39196;SDS011;42889;51.112;13.772;2022-10-16T01:14:22;7.80;;;3.50;;
39196;SDS011;42889;51.112;13.772;2022-10-16T01:17:10;6.50;;;3.70;;
39196;SDS011;42889;51.112;13.772;2022-10-16T01:19:44;8.35;;;3.60;;
39196;SDS011;42889;51.112;13.772;2022-10-16T01:22:37;7.03;;;3.40;;
39196;SDS011;42889;51.112;13.772;2022-10-16T01:25:39;6.65;;;3.30;;
39196;SDS011;42889;51.112;13.772;2022-10-16T01:28:11;7.78;;;4.25;;
39196;SDS011;42889;51.112;13.772;2022-10-16T01:30:42;8.50;;;3.47;;
39196;SDS011;42889;51.112;13.772;2022-10-16T01:33:18;6.40;;;3.67;;
39196;SDS011;42889;51.112;13.772;2022-10-16T01:35:49;6.57;;;3.58;;
39196;SDS011;42889;51.112;13.772;2022-10-16T01:38:21;7.47;;;3.88;;
39196;SDS011;42889;51.112;13.772;2022-10-16T01:41:03;6.55;;;3.58;;
39196;SDS011;42889;51.112;13.772;2022-10-16T01:43:41;9.10;;;3.58;;
39196;SDS011;42889;51.112;13.772;2022-10-16T01:46:15;7.43;;;3.60;;
39196;SDS011;42889;51.112;13.772;2022-10-16T01:48:45;6.10;;;3.45;;
39196;SDS011;42889;51.112;13.772;2022-10-16T01:51:14;6.35;;;3.72;;
39196;SDS011;42889;51.112;13.772;2022-10-16T01:53:43;6.45;;;3.35;;
39196;SDS011;42889;51.112;13.772;2022-10-16T01:56:14;6.75;;;3.65;;
39196;SDS011;42889;51.112;13.772;2022-10-16T01:59:06;6.00;;;3.38;;
39196;SDS011;42889;51.112;13.772;2022-10-16T02:01:40;6.40;;;3.38;;
39196;SDS011;42889;51.112;13.772;2022-10-16T02:04:33;7.60;;;3.10;;
39196;SDS011;42889;51.112;13.772;2022-10-16T02:07:04;6.57;;;3.63;;
39196;SDS011;42889;51.112;13.772;2022-10-16T02:09:33;5.53;;;3.20;;
39196;SDS011;42889;51.112;13.772;2022-10-16T02:12:02;5.45;;;2.90;;
39196;SDS011;42889;51.112;13.772;2022-10-16T02:14:32;6.10;;;3.35;;
39196;SDS011;42889;51.112;13.772;2022-10-16T02:16:59;5.72;;;3.20;;
39196;SDS011;42889;51.112;13.772;2022-10-16T02:19:26;6.88;;;3.45;;
39196;SDS011;42889;51.112;13.772;2022-10-16T02:21:56;6.28;;;3.40;;
39196;SDS011;42889;51.112;13.772;2022-10-16T02:24:40;7.00;;;3.50;;
39196;SDS011;42889;51.112;13.772;2022-10-16T02:27:17;7.38;;;3.75;;
39196;SDS011;42889;51.112;13.772;2022-10-16T02:30:07;6.45;;;3.72;;
39196;SDS011;42889;51.112;13.772;2022-10-16T02:32:42;6.63;;;3.13;;
39196;SDS011;42889;51.112;13.772;2022-10-16T02:35:12;6.90;;;3.70;;
39196;SDS011;42889;51.112;13.772;2022-10-16T02:37:40;6.45;;;3.65;;
39196;SDS011;42889;51.112;13.772;2022-10-16T02:40:08;8.25;;;4.30;;
39196;SDS011;42889;51.112;13.772;2022-10-16T02:42:36;6.68;;;3.47;;
39196;SDS011;42889;51.112;13.772;2022-10-16T02:45:04;7.47;;;3.40;;
39196;SDS011;42889;51.112;13.772;2022-10-16T02:47:32;6.47;;;3.65;;
39196;SDS011;42889;51.112;13.772;2022-10-16T02:49:59;6.93;;;3.75;;
39196;SDS011;42889;51.112;13.772;2022-10-16T02:52:26;7.28;;;3.72;;
39196;SDS011;42889;51.112;13.772;2022-10-16T02:54:53;5.75;;;3.50;;
39196;SDS011;42889;51.112;13.772;2022-10-16T02:57:20;7.50;;;3.60;;
39196;SDS011;42889;51.112;13.772;2022-10-16T02:59:46;7.53;;;3.97;;
39196;SDS011;42889;51.112;13.772;2022-10-16T03:02:13;5.65;;;3.33;;
39196;SDS011;42889;51.112;13.772;2022-10-16T03:04:40;8.18;;;3.65;;
39196;SDS011;42889;51.112;13.772;2022-10-16T03:07:07;6.75;;;3.50;;
39196;SDS011;42889;51.112;13.772;2022-10-16T03:09:33;5.90;;;3.38;;
39196;SDS011;42889;51.112;13.772;2022-10-16T03:12:00;6.85;;;3.50;;
39196;SDS011;42889;51.112;13.772;2022-10-16T03:14:27;6.18;;;3.50;;
39196;SDS011;42889;51.112;13.772;2022-10-16T03:16:58;5.80;;;3.05;;
39196;SDS011;42889;51.112;13.772;2022-10-16T03:19:25;6.90;;;3.83;;
39196;SDS011;42889;51.112;13.772;2022-10-16T03:21:51;7.03;;;3.60;;
39196;SDS011;42889;51.112;13.772;2022-10-16T03:24:18;6.10;;;3.28;;
39196;SDS011;42889;51.112;13.772;2022-10-16T03:26:45;7.55;;;3.47;;
39196;SDS011;42889;51.112;13.772;2022-10-16T03:29:11;6.82;;;3.15;;
39196;SDS011;42889;51.112;13.772;2022-10-16T03:31:38;6.53;;;3.20;;
39196;SDS011;42889;51.112;13.772;2022-10-16T03:34:04;6.43;;;3.28;;
39196;SDS011;42889;51.112;13.772;2022-10-16T03:36:31;6.57;;;3.60;;
39196;SDS011;42889;51.112;13.772;2022-10-16T03:38:58;6.68;;;3.20;;
39196;SDS011;42889;51.112;13.772;2022-10-16T03:41:24;7.35;;;3.25;;
39196;SDS011;42889;51.112;13.772;2022-10-16T03:43:51;5.78;;;3.38;;
39196;SDS011;42889;51.112;13.772;2022-10-16T03:46:18;6.68;;;3.00;;
39196;SDS011;42889;51.112;13.772;2022-10-16T03:48:45;5.30;;;2.80;;
39196;SDS011;42889;51.112;13.772;2022-10-16T03:51:11;6.43;;;3.22;;
39196;SDS011;42889;51.112;13.772;2022-10-16T03:53:38;6.72;;;3.10;;
39196;SDS011;42889;51.112;13.772;2022-10-16T03:56:05;5.13;;;2.72;;
39196;SDS011;42889;51.112;13.772;2022-10-16T03:58:32;5.95;;;3.13;;
39196;SDS011;42889;51.112;13.772;2022-10-16T04:00:58;6.95;;;3.00;;
39196;SDS011;42889;51.112;13.772;2022-10-16T04:03:25;6.15;;;2.97;;
39196;SDS011;42889;51.112;13.772;2022-10-16T04:05:52;4.78;;;2.50;;
39196;SDS011;42889;51.112;13.772;2022-10-16T04:08:18;6.22;;;3.08;;
39196;SDS011;42889;51.112;13.772;2022-10-16T04:10:45;4.85;;;2.60;;
39196;SDS011;42889;51.112;13.772;2022-10-16T04:13:12;5.20;;;2.90;;
39196;SDS011;42889;51.112;13.772;2022-10-16T04:15:39;5.75;;;3.05;;
39196;SDS011;42889;51.112;13.772;2022-10-16T04:18:06;6.13;;;3.17;;
39196;SDS011;42889;51.112;13.772;2022-10-16T04:20:33;6.40;;;3.05;;
39196;SDS011;42889;51.112;13.772;2022-10-16T04:23:00;6.00;;;2.90;;
39196;SDS011;42889;51.112;13.772;2022-10-16T04:25:27;5.00;;;2.55;;
39196;SDS011;42889;51.112;13.772;2022-10-16T04:27:53;5.88;;;3.22;;
39196;SDS011;42889;51.112;13.772;2022-10-16T04:30:20;6.28;;;3.47;;
39196;SDS011;42889;51.112;13.772;2022-10-16T04:32:48;7.68;;;3.38;;
39196;SDS011;42889;51.112;13.772;2022-10-16T04:35:17;5.65;;;2.75;;
39196;SDS011;42889;51.112;13.772;2022-10-16T04:37:44;6.25;;;2.92;;
39196;SDS011;42889;51.112;13.772;2022-10-16T04:40:11;9.38;;;3.47;;
39196;SDS011;42889;51.112;13.772;2022-10-16T04:42:38;5.80;;;3.38;;
39196;SDS011;42889;51.112;13.772;2022-10-16T04:45:05;6.45;;;3.20;;
39196;SDS011;42889;51.112;13.772;2022-10-16T04:47:32;6.30;;;3.60;;
39196;SDS011;42889;51.112;13.772;2022-10-16T04:49:59;7.75;;;4.25;;
39196;SDS011;42889;51.112;13.772;2022-10-16T04:52:27;6.93;;;3.80;;
39196;SDS011;42889;51.112;13.772;2022-10-16T04:54:54;6.43;;;3.47;;
39196;SDS011;42889;51.112;13.772;2022-10-16T04:57:22;6.05;;;3.65;;
39196;SDS011;42889;51.112;13.772;2022-10-16T04:59:49;8.63;;;4.10;;
39196;SDS011;42889;51.112;13.772;2022-10-16T05:02:16;6.53;;;3.90;;
39196;SDS011;42889;51.112;13.772;2022-10-16T05:04:42;6.97;;;3.97;;
39196;SDS011;42889;51.112;13.772;2022-10-16T05:07:09;7.95;;;4.55;;
39196;SDS011;42889;51.112;13.772;2022-10-16T05:09:36;9.20;;;5.18;;
39196;SDS011;42889;51.112;13.772;2022-10-16T05:12:02;9.88;;;5.03;;
39196;SDS011;42889;51.112;13.772;2022-10-16T05:14:29;10.45;;;5.60;;
39196;SDS011;42889;51.112;13.772;2022-10-16T05:16:56;9.15;;;4.95;;
39196;SDS011;42889;51.112;13.772;2022-10-16T05:19:23;8.45;;;4.60;;
39196;SDS011;42889;51.112;13.772;2022-10-16T05:21:54;9.55;;;5.03;;
39196;SDS011;42889;51.112;13.772;2022-10-16T05:24:21;8.25;;;4.80;;
39196;SDS011;42889;51.112;13.772;2022-10-16T05:26:47;8.68;;;5.03;;
39196;SDS011;42889;51.112;13.772;2022-10-16T05:29:14;9.25;;;5.50;;
39196;SDS011;42889;51.112;13.772;2022-10-16T05:31:41;8.75;;;5.18;;
39196;SDS011;42889;51.112;13.772;2022-10-16T05:34:08;8.77;;;4.82;;
39196;SDS011;42889;51.112;13.772;2022-10-16T05:36:35;9.10;;;4.50;;
39196;SDS011;42889;51.112;13.772;2022-10-16T05:39:02;9.80;;;5.20;;
39196;SDS011;42889;51.112;13.772;2022-10-16T05:41:29;8.93;;;4.90;;
39196;SDS011;42889;51.112;13.772;2022-10-16T05:43:55;9.20;;;5.80;;
39196;SDS011;42889;51.112;13.772;2022-10-16T05:46:22;8.93;;;5.30;;
39196;SDS011;42889;51.112;13.772;2022-10-16T05:48:51;8.02;;;4.82;;
39196;SDS011;42889;51.112;13.772;2022-10-16T05:51:18;7.47;;;4.75;;
39196;SDS011;42889;51.112;13.772;2022-10-16T05:53:45;8.43;;;4.80;;
39196;SDS011;42889;51.112;13.772;2022-10-16T05:56:12;9.77;;;5.05;;
39196;SDS011;42889;51.112;13.772;2022-10-16T05:58:39;8.98;;;5.35;;
39196;SDS011;42889;51.112;13.772;2022-10-16T06:01:09;7.97;;;4.93;;
39196;SDS011;42889;51.112;13.772;2022-10-16T06:03:40;10.07;;;5.28;;
39196;SDS011;42889;51.112;13.772;2022-10-16T06:06:08;8.68;;;5.15;;
39196;SDS011;42889;51.112;13.772;2022-10-16T06:08:38;8.52;;;4.93;;
39196;SDS011;42889;51.112;13.772;2022-10-16T06:11:06;8.60;;;4.75;;
39196;SDS011;42889;51.112;13.772;2022-10-16T06:13:35;8.65;;;4.95;;
39196;SDS011;42889;51.112;13.772;2022-10-16T06:16:02;7.78;;;4.50;;
39196;SDS011;42889;51.112;13.772;2022-10-16T06:18:30;9.77;;;4.95;;
39196;SDS011;42889;51.112;13.772;2022-10-16T06:20:57;8.80;;;4.93;;
39196;SDS011;42889;51.112;13.772;2022-10-16T06:23:28;10.55;;;5.47;;
39196;SDS011;42889;51.112;13.772;2022-10-16T06:26:03;11.70;;;6.33;;
39196;SDS011;42889;51.112;13.772;2022-10-16T06:28:30;18.17;;;7.90;;
39196;SDS011;42889;51.112;13.772;2022-10-16T06:31:00;22.65;;;9.27;;
39196;SDS011;42889;51.112;13.772;2022-10-16T06:33:33;17.73;;;8.93;;
39196;SDS011;42889;51.112;13.772;2022-10-16T06:36:05;17.98;;;8.20;;
39196;SDS011;42889;51.112;13.772;2022-10-16T06:38:34;14.40;;;7.05;;
39196;SDS011;42889;51.112;13.772;2022-10-16T06:41:01;20.13;;;9.20;;
39196;SDS011;42889;51.112;13.772;2022-10-16T06:43:29;16.23;;;7.90;;
39196;SDS011;42889;51.112;13.772;2022-10-16T06:46:02;15.75;;;7.45;;
39196;SDS011;42889;51.112;13.772;2022-10-16T06:48:30;14.80;;;7.07;;
39196;SDS011;42889;51.112;13.772;2022-10-16T06:50:57;12.20;;;6.30;;
39196;SDS011;42889;51.112;13.772;2022-10-16T06:53:27;14.18;;;6.82;;
39196;SDS011;42889;51.112;13.772;2022-10-16T06:56:15;11.75;;;6.10;;
39196;SDS011;42889;51.112;13.772;2022-10-16T06:58:44;11.75;;;6.53;;
39196;SDS011;42889;51.112;13.772;2022-10-16T07:01:11;10.55;;;6.03;;
39196;SDS011;42889;51.112;13.772;2022-10-16T07:03:39;10.02;;;5.85;;
39196;SDS011;42889;51.112;13.772;2022-10-16T07:06:07;9.20;;;5.75;;
39196;SDS011;42889;51.112;13.772;2022-10-16T07:08:36;9.50;;;5.55;;
39196;SDS011;42889;51.112;13.772;2022-10-16T07:11:06;11.55;;;6.20;;
39196;SDS011;42889;51.112;13.772;2022-10-16T07:13:35;10.27;;;5.37;;
39196;SDS011;42889;51.112;13.772;2022-10-16T07:16:06;10.27;;;5.38;;
39196;SDS011;42889;51.112;13.772;2022-10-16T07:18:37;10.52;;;5.55;;
39196;SDS011;42889;51.112;13.772;2022-10-16T07:23:32;10.70;;;5.72;;
39196;SDS011;42889;51.112;13.772;2022-10-16T07:25:58;13.13;;;6.50;;
39196;SDS011;42889;51.112;13.772;2022-10-16T07:28:25;9.63;;;5.22;;
39196;SDS011;42889;51.112;13.772;2022-10-16T07:30:52;8.02;;;4.70;;
39196;SDS011;42889;51.112;13.772;2022-10-16T07:33:19;8.43;;;4.57;;
39196;SDS011;42889;51.112;13.772;2022-10-16T07:35:52;7.70;;;4.68;;
39196;SDS011;42889;51.112;13.772;2022-10-16T07:38:20;9.40;;;5.20;;
39196;SDS011;42889;51.112;13.772;2022-10-16T07:40:48;7.88;;;4.47;;
39196;SDS011;42889;51.112;13.772;2022-10-16T07:43:14;8.52;;;4.43;;
39196;SDS011;42889;51.112;13.772;2022-10-16T07:45:48;7.80;;;4.35;;
39196;SDS011;42889;51.112;13.772;2022-10-16T07:48:16;7.80;;;4.53;;
39196;SDS011;42889;51.112;13.772;2022-10-16T07:50:43;8.38;;;4.75;;
39196;SDS011;42889;51.112;13.772;2022-10-16T07:53:11;6.70;;;4.07;;
39196;SDS011;42889;51.112;13.772;2022-10-16T07:55:38;6.72;;;3.97;;
39196;SDS011;42889;51.112;13.772;2022-10-16T07:58:05;5.95;;;3.50;;
39196;SDS011;42889;51.112;13.772;2022-10-16T08:00:33;5.85;;;3.50;;
39196;SDS011;42889;51.112;13.772;2022-10-16T08:03:00;6.38;;;3.50;;
39196;SDS011;42889;51.112;13.772;2022-10-16T08:05:27;6.45;;;3.63;;
39196;SDS011;42889;51.112;13.772;2022-10-16T08:07:55;5.22;;;2.80;;
39196;SDS011;42889;51.112;13.772;2022-10-16T08:10:23;5.78;;;3.00;;
39196;SDS011;42889;51.112;13.772;2022-10-16T08:12:52;6.75;;;3.45;;
39196;SDS011;42889;51.112;13.772;2022-10-16T08:15:19;4.70;;;2.40;;
39196;SDS011;42889;51.112;13.772;2022-10-16T08:17:57;4.00;;;2.50;;
39196;SDS011;42889;51.112;13.772;2022-10-16T08:20:25;3.95;;;2.08;;
39196;SDS011;42889;51.112;13.772;2022-10-16T08:22:53;4.13;;;2.25;;
39196;SDS011;42889;51.112;13.772;2022-10-16T08:25:23;3.53;;;2.15;;
39196;SDS011;42889;51.112;13.772;2022-10-16T08:27:50;3.25;;;1.75;;
39196;SDS011;42889;51.112;13.772;2022-10-16T08:30:18;4.03;;;2.03;;
39196;SDS011;42889;51.112;13.772;2022-10-16T08:32:46;4.32;;;2.00;;
39196;SDS011;42889;51.112;13.772;2022-10-16T08:35:13;3.10;;;1.85;;
39196;SDS011;42889;51.112;13.772;2022-10-16T08:37:41;5.10;;;1.90;;
39196;SDS011;42889;51.112;13.772;2022-10-16T08:40:27;2.97;;;1.67;;
39196;SDS011;42889;51.112;13.772;2022-10-16T08:46:05;3.28;;;1.63;;
39196;SDS011;42889;51.112;13.772;2022-10-16T08:48:49;3.38;;;1.80;;
39196;SDS011;42889;51.112;13.772;2022-10-16T08:51:28;2.95;;;1.65;;
39196;SDS011;42889;51.112;13.772;2022-10-16T08:54:05;3.30;;;1.52;;
39196;SDS011;42889;51.112;13.772;2022-10-16T08:56:50;3.30;;;1.20;;
39196;SDS011;42889;51.112;13.772;2022-10-16T08:59:17;2.60;;;1.20;;
39196;SDS011;42889;51.112;13.772;2022-10-16T09:01:45;4.00;;;1.20;;
39196;SDS011;42889;51.112;13.772;2022-10-16T09:09:51;1.58;;;0.68;;
39196;SDS011;42889;51.112;13.772;2022-10-16T09:12:33;2.15;;;0.60;;
39196;SDS011;42889;51.112;13.772;2022-10-16T09:17:59;1.70;;;0.80;;
39196;SDS011;42889;51.112;13.772;2022-10-16T09:20:38;1.80;;;0.70;;
39196;SDS011;42889;51.112;13.772;2022-10-16T09:26:04;1.50;;;0.70;;
39196;SDS011;42889;51.112;13.772;2022-10-16T09:28:32;2.00;;;1.00;;
39196;SDS011;42889;51.112;13.772;2022-10-16T09:30:59;1.95;;;0.68;;
39196;SDS011;42889;51.112;13.772;2022-10-16T09:33:28;1.73;;;0.80;;
39196;SDS011;42889;51.112;13.772;2022-10-16T09:35:59;1.98;;;1.00;;
39196;SDS011;42889;51.112;13.772;2022-10-16T09:38:32;3.45;;;0.88;;
39196;SDS011;42889;51.112;13.772;2022-10-16T09:41:01;1.80;;;1.00;;
39196;SDS011;42889;51.112;13.772;2022-10-16T09:43:41;4.07;;;1.35;;
39196;SDS011;42889;51.112;13.772;2022-10-16T09:49:20;4.85;;;1.33;;
39196;SDS011;42889;51.112;13.772;2022-10-16T09:51:44;2.65;;;1.17;;
39196;SDS011;42889;51.112;13.772;2022-10-16T09:54:15;2.65;;;1.48;;
39196;SDS011;42889;51.112;13.772;2022-10-16T09:56:46;2.70;;;1.30;;
39196;SDS011;42889;51.112;13.772;2022-10-16T09:59:19;3.10;;;1.40;;
39196;SDS011;42889;51.112;13.772;2022-10-16T10:01:48;2.72;;;1.40;;
39196;SDS011;42889;51.112;13.772;2022-10-16T10:04:18;2.78;;;1.55;;
39196;SDS011;42889;51.112;13.772;2022-10-16T10:06:47;5.05;;;1.20;;
39196;SDS011;42889;51.112;13.772;2022-10-16T10:11:52;2.63;;;1.10;;
39196;SDS011;42889;51.112;13.772;2022-10-16T10:17:07;1.80;;;0.80;;
39196;SDS011;42889;51.112;13.772;2022-10-16T10:19:40;2.95;;;0.85;;
39196;SDS011;42889;51.112;13.772;2022-10-16T10:36:25;2.38;;;0.60;;
39196;SDS011;42889;51.112;13.772;2022-10-16T10:38:59;2.15;;;0.80;;
39196;SDS011;42889;51.112;13.772;2022-10-16T10:44:11;2.80;;;0.60;;
39196;SDS011;42889;51.112;13.772;2022-10-16T10:46:51;1.23;;;0.22;;
39196;SDS011;42889;51.112;13.772;2022-10-16T10:49:40;0.22;;;0.10;;
39196;SDS011;42889;51.112;13.772;2022-10-16T10:52:30;1.60;;;0.15;;
39196;SDS011;42889;51.112;13.772;2022-10-16T11:11:40;0.75;;;0.00;;
39196;SDS011;42889;51.112;13.772;2022-10-16T11:22:17;0.15;;;0.00;;
39196;SDS011;42889;51.112;13.772;2022-10-16T11:24:52;0.93;;;0.13;;
39196;SDS011;42889;51.112;13.772;2022-10-16T11:27:37;0.60;;;0.10;;
39196;SDS011;42889;51.112;13.772;2022-10-16T11:30:14;0.40;;;0.10;;
39196;SDS011;42889;51.112;13.772;2022-10-16T11:38:15;0.73;;;0.10;;
39196;SDS011;42889;51.112;13.772;2022-10-16T11:40:59;0.68;;;0.00;;
39196;SDS011;42889;51.112;13.772;2022-10-16T11:43:38;0.77;;;0.00;;
39196;SDS011;42889;51.112;13.772;2022-10-16T11:46:18;0.30;;;0.00;;
39196;SDS011;42889;51.112;13.772;2022-10-16T11:48:54;0.20;;;0.00;;
39196;SDS011;42889;51.112;13.772;2022-10-16T11:51:35;0.20;;;0.00;;
39196;SDS011;42889;51.112;13.772;2022-10-16T11:57:28;1.05;;;0.00;;
39196;SDS011;42889;51.112;13.772;2022-10-16T12:02:44;0.40;;;0.22;;
39196;SDS011;42889;51.112;13.772;2022-10-16T12:08:05;0.50;;;0.10;;
39196;SDS011;42889;51.112;13.772;2022-10-16T12:10:38;0.88;;;0.10;;
39196;SDS011;42889;51.112;13.772;2022-10-16T12:18:44;0.60;;;0.10;;
39196;SDS011;42889;51.112;13.772;2022-10-16T12:21:12;0.30;;;0.10;;
39196;SDS011;42889;51.112;13.772;2022-10-16T12:23:51;0.82;;;0.10;;
39196;SDS011;42889;51.112;13.772;2022-10-16T12:26:27;0.55;;;0.10;;
39196;SDS011;42889;51.112;13.772;2022-10-16T12:28:55;2.33;;;0.10;;
39196;SDS011;42889;51.112;13.772;2022-10-16T12:31:45;1.83;;;0.10;;
39196;SDS011;42889;51.112;13.772;2022-10-16T12:34:27;0.63;;;0.10;;
39196;SDS011;42889;51.112;13.772;2022-10-16T12:39:39;1.05;;;0.15;;
39196;SDS011;42889;51.112;13.772;2022-10-16T12:42:20;1.85;;;0.25;;
39196;SDS011;42889;51.112;13.772;2022-10-16T12:44:49;3.35;;;0.20;;
39196;SDS011;42889;51.112;13.772;2022-10-16T12:47:21;1.50;;;0.20;;
39196;SDS011;42889;51.112;13.772;2022-10-16T12:49:53;2.75;;;0.55;;
39196;SDS011;42889;51.112;13.772;2022-10-16T12:54:59;2.85;;;0.32;;
39196;SDS011;42889;51.112;13.772;2022-10-16T13:00:20;2.22;;;0.50;;
39196;SDS011;42889;51.112;13.772;2022-10-16T13:06:22;1.77;;;0.10;;
39196;SDS011;42889;51.112;13.772;2022-10-16T13:09:32;3.83;;;0.85;;
39196;SDS011;42889;51.112;13.772;2022-10-16T13:17:21;0.80;;;0.20;;
39196;SDS011;42889;51.112;13.772;2022-10-16T13:23:38;1.20;;;0.20;;
39196;SDS011;42889;51.112;13.772;2022-10-16T13:28:39;1.48;;;0.38;;
39196;SDS011;42889;51.112;13.772;2022-10-16T13:31:10;0.63;;;0.10;;
39196;SDS011;42889;51.112;13.772;2022-10-16T13:33:45;1.25;;;0.17;;
39196;SDS011;42889;51.112;13.772;2022-10-16T13:36:21;1.63;;;0.40;;
39196;SDS011;42889;51.112;13.772;2022-10-16T13:38:57;1.65;;;0.10;;
39196;SDS011;42889;51.112;13.772;2022-10-16T13:41:27;0.80;;;0.10;;
39196;SDS011;42889;51.112;13.772;2022-10-16T13:43:54;0.55;;;0.10;;
39196;SDS011;42889;51.112;13.772;2022-10-16T13:46:23;0.60;;;0.20;;
39196;SDS011;42889;51.112;13.772;2022-10-16T13:51:28;0.77;;;0.10;;
39196;SDS011;42889;51.112;13.772;2022-10-16T13:53:57;0.98;;;0.20;;
39196;SDS011;42889;51.112;13.772;2022-10-16T13:56:29;1.75;;;0.30;;
39196;SDS011;42889;51.112;13.772;2022-10-16T13:59:05;2.50;;;0.55;;
39196;SDS011;42889;51.112;13.772;2022-10-16T14:01:33;1.35;;;0.25;;
39196;SDS011;42889;51.112;13.772;2022-10-16T14:04:10;0.60;;;0.20;;
39196;SDS011;42889;51.112;13.772;2022-10-16T14:06:41;0.90;;;0.28;;
39196;SDS011;42889;51.112;13.772;2022-10-16T14:11:48;0.93;;;0.30;;
39196;SDS011;42889;51.112;13.772;2022-10-16T14:14:20;1.00;;;0.20;;
39196;SDS011;42889;51.112;13.772;2022-10-16T14:19:22;2.88;;;0.20;;
39196;SDS011;42889;51.112;13.772;2022-10-16T14:21:52;0.93;;;0.20;;
39196;SDS011;42889;51.112;13.772;2022-10-16T14:24:27;2.05;;;0.20;;
39196;SDS011;42889;51.112;13.772;2022-10-16T14:26:57;1.40;;;0.38;;
39196;SDS011;42889;51.112;13.772;2022-10-16T14:29:25;1.60;;;0.40;;
39196;SDS011;42889;51.112;13.772;2022-10-16T14:32:00;1.10;;;0.40;;
39196;SDS011;42889;51.112;13.772;2022-10-16T14:34:32;1.20;;;0.40;;
39196;SDS011;42889;51.112;13.772;2022-10-16T14:37:01;1.88;;;0.43;;
39196;SDS011;42889;51.112;13.772;2022-10-16T14:39:33;2.70;;;0.68;;
39196;SDS011;42889;51.112;13.772;2022-10-16T14:42:00;2.65;;;0.75;;
39196;SDS011;42889;51.112;13.772;2022-10-16T14:44:31;2.17;;;0.75;;
39196;SDS011;42889;51.112;13.772;2022-10-16T14:47:06;3.92;;;0.80;;
39196;SDS011;42889;51.112;13.772;2022-10-16T14:49:35;5.05;;;0.75;;
39196;SDS011;42889;51.112;13.772;2022-10-16T14:52:04;2.45;;;0.65;;
39196;SDS011;42889;51.112;13.772;2022-10-16T14:54:34;4.65;;;0.90;;
39196;SDS011;42889;51.112;13.772;2022-10-16T14:57:01;2.28;;;0.70;;
39196;SDS011;42889;51.112;13.772;2022-10-16T15:02:14;2.55;;;0.60;;
39196;SDS011;42889;51.112;13.772;2022-10-16T15:04:49;1.98;;;0.70;;
39196;SDS011;42889;51.112;13.772;2022-10-16T15:07:16;2.88;;;0.90;;
39196;SDS011;42889;51.112;13.772;2022-10-16T15:09:43;2.63;;;1.00;;
39196;SDS011;42889;51.112;13.772;2022-10-16T15:12:14;3.47;;;0.88;;
39196;SDS011;42889;51.112;13.772;2022-10-16T15:14:42;3.72;;;1.27;;
39196;SDS011;42889;51.112;13.772;2022-10-16T15:17:11;4.40;;;0.80;;
39196;SDS011;42889;51.112;13.772;2022-10-16T15:19:39;2.85;;;1.05;;
39196;SDS011;42889;51.112;13.772;2022-10-16T15:22:06;3.03;;;0.90;;
39196;SDS011;42889;51.112;13.772;2022-10-16T15:24:35;3.28;;;0.68;;
39196;SDS011;42889;51.112;13.772;2022-10-16T15:27:02;3.40;;;0.52;;
39196;SDS011;42889;51.112;13.772;2022-10-16T15:29:29;2.28;;;0.63;;
39196;SDS011;42889;51.112;13.772;2022-10-16T15:31:55;8.27;;;0.88;;
39196;SDS011;42889;51.112;13.772;2022-10-16T15:34:22;2.00;;;0.50;;
39196;SDS011;42889;51.112;13.772;2022-10-16T15:36:49;2.92;;;0.57;;
39196;SDS011;42889;51.112;13.772;2022-10-16T15:39:16;1.90;;;0.68;;
39196;SDS011;42889;51.112;13.772;2022-10-16T15:41:45;5.07;;;1.03;;
39196;SDS011;42889;51.112;13.772;2022-10-16T15:44:20;2.28;;;0.50;;
39196;SDS011;42889;51.112;13.772;2022-10-16T15:46:49;2.08;;;0.60;;
39196;SDS011;42889;51.112;13.772;2022-10-16T15:49:15;2.42;;;0.65;;
39196;SDS011;42889;51.112;13.772;2022-10-16T15:51:42;4.03;;;0.80;;
39196;SDS011;42889;51.112;13.772;2022-10-16T15:54:09;1.98;;;0.70;;
39196;SDS011;42889;51.112;13.772;2022-10-16T15:56:35;4.63;;;0.90;;
39196;SDS011;42889;51.112;13.772;2022-10-16T15:59:04;1.75;;;0.63;;
39196;SDS011;42889;51.112;13.772;2022-10-16T16:01:32;2.35;;;0.60;;
39196;SDS011;42889;51.112;13.772;2022-10-16T16:04:00;4.78;;;0.80;;
39196;SDS011;42889;51.112;13.772;2022-10-16T16:06:40;4.22;;;0.73;;
39196;SDS011;42889;51.112;13.772;2022-10-16T16:09:11;3.17;;;0.68;;
39196;SDS011;42889;51.112;13.772;2022-10-16T16:11:38;2.88;;;0.90;;
39196;SDS011;42889;51.112;13.772;2022-10-16T16:14:05;3.20;;;0.90;;
39196;SDS011;42889;51.112;13.772;2022-10-16T16:16:33;3.83;;;1.00;;
39196;SDS011;42889;51.112;13.772;2022-10-16T16:19:04;2.80;;;1.20;;
39196;SDS011;42889;51.112;13.772;2022-10-16T16:21:37;2.10;;;0.77;;
39196;SDS011;42889;51.112;13.772;2022-10-16T16:24:03;3.17;;;0.88;;
39196;SDS011;42889;51.112;13.772;2022-10-16T16:26:35;3.85;;;0.70;;
39196;SDS011;42889;51.112;13.772;2022-10-16T16:29:06;4.15;;;0.82;;
39196;SDS011;42889;51.112;13.772;2022-10-16T16:31:33;2.65;;;0.90;;
39196;SDS011;42889;51.112;13.772;2022-10-16T16:34:01;4.03;;;0.98;;
39196;SDS011;42889;51.112;13.772;2022-10-16T16:36:27;3.85;;;0.75;;
39196;SDS011;42889;51.112;13.772;2022-10-16T16:38:54;3.90;;;1.25;;
39196;SDS011;42889;51.112;13.772;2022-10-16T16:41:21;3.30;;;0.90;;
39196;SDS011;42889;51.112;13.772;2022-10-16T16:43:51;6.53;;;1.17;;
39196;SDS011;42889;51.112;13.772;2022-10-16T16:46:19;2.45;;;0.73;;
39196;SDS011;42889;51.112;13.772;2022-10-16T16:48:46;4.65;;;0.90;;
39196;SDS011;42889;51.112;13.772;2022-10-16T16:51:14;3.30;;;0.98;;
39196;SDS011;42889;51.112;13.772;2022-10-16T16:53:45;3.78;;;0.88;;
39196;SDS011;42889;51.112;13.772;2022-10-16T16:56:14;2.65;;;0.88;;
39196;SDS011;42889;51.112;13.772;2022-10-16T16:58:41;2.70;;;0.90;;
39196;SDS011;42889;51.112;13.772;2022-10-16T17:01:10;2.15;;;0.75;;